sensor_id;sensor_type;location;lat;lon;timestamp;pressure;altitude;pressure_sealevel;temperature;humidity
74403;BME280;62837;51.082;13.744;2022-11-11T00:02:17;101782.91;;;9.95;70.31
74403;BME280;62837;51.082;13.744;2022-11-11T00:05:07;101783.39;;;9.78;69.51
74403;BME280;62837;51.082;13.744;2022-11-11T00:07:57;101789.33;;;9.58;69.88
74403;BME280;62837;51.082;13.744;2022-11-11T00:10:46;101791.70;;;9.47;70.90
74403;BME280;62837;51.082;13.744;2022-11-11T00:13:36;101790.19;;;9.46;70.68
74403;BME280;62837;51.082;13.744;2022-11-11T00:16:26;101796.55;;;9.46;70.81
74403;BME280;62837;51.082;13.744;2022-11-11T00:19:37;101794.41;;;9.54;71.44
74403;BME280;62837;51.082;13.744;2022-11-11T00:22:44;101794.02;;;9.67;71.56
74403;BME280;62837;51.082;13.744;2022-11-11T00:25:53;101805.28;;;9.78;71.52
74403;BME280;62837;51.082;13.744;2022-11-11T00:29:03;101807.72;;;9.87;70.77
74403;BME280;62837;51.082;13.744;2022-11-11T00:31:52;101810.67;;;9.83;70.65
74403;BME280;62837;51.082;13.744;2022-11-11T00:35:00;101812.52;;;9.81;70.64
74403;BME280;62837;51.082;13.744;2022-11-11T00:38:12;101818.73;;;9.84;70.51
74403;BME280;62837;51.082;13.744;2022-11-11T00:41:23;101818.48;;;9.85;70.86
74403;BME280;62837;51.082;13.744;2022-11-11T00:44:14;101821.66;;;9.92;70.94
74403;BME280;62837;51.082;13.744;2022-11-11T00:47:03;101827.73;;;9.96;70.62
74403;BME280;62837;51.082;13.744;2022-11-11T00:50:15;101827.85;;;9.96;69.90
74403;BME280;62837;51.082;13.744;2022-11-11T00:53:27;101824.27;;;9.96;69.95
74403;BME280;62837;51.082;13.744;2022-11-11T00:56:17;101816.27;;;9.95;70.31
74403;BME280;62837;51.082;13.744;2022-11-11T00:59:07;101808.55;;;9.98;70.15
74403;BME280;62837;51.082;13.744;2022-11-11T01:01:57;101806.77;;;9.99;70.13
74403;BME280;62837;51.082;13.744;2022-11-11T01:04:47;101795.49;;;9.97;69.52
74403;BME280;62837;51.082;13.744;2022-11-11T01:07:36;101799.46;;;9.98;70.03
74403;BME280;62837;51.082;13.744;2022-11-11T01:10:26;101798.53;;;10.00;69.95
74403;BME280;62837;51.082;13.744;2022-11-11T01:13:30;101808.05;;;10.05;69.94
74403;BME280;62837;51.082;13.744;2022-11-11T01:16:22;101805.00;;;9.93;68.81
74403;BME280;62837;51.082;13.744;2022-11-11T01:19:11;101805.47;;;9.76;69.78
74403;BME280;62837;51.082;13.744;2022-11-11T01:22:01;101807.38;;;9.75;70.24
74403;BME280;62837;51.082;13.744;2022-11-11T01:24:50;101801.96;;;9.72;70.20
74403;BME280;62837;51.082;13.744;2022-11-11T01:27:40;101807.31;;;9.77;70.05
74403;BME280;62837;51.082;13.744;2022-11-11T01:30:31;101807.33;;;9.77;70.04
74403;BME280;62837;51.082;13.744;2022-11-11T01:33:21;101806.17;;;9.78;70.29
74403;BME280;62837;51.082;13.744;2022-11-11T01:36:12;101798.53;;;9.78;69.92
74403;BME280;62837;51.082;13.744;2022-11-11T01:39:02;101797.93;;;9.79;69.94
74403;BME280;62837;51.082;13.744;2022-11-11T01:41:52;101796.79;;;9.80;70.22
74403;BME280;62837;51.082;13.744;2022-11-11T01:44:48;101804.13;;;9.81;69.78
74403;BME280;62837;51.082;13.744;2022-11-11T01:47:37;101811.01;;;9.76;69.86
74403;BME280;62837;51.082;13.744;2022-11-11T01:51:08;101808.29;;;9.79;70.17
74403;BME280;62837;51.082;13.744;2022-11-11T01:54:03;101808.39;;;9.84;70.21
74403;BME280;62837;51.082;13.744;2022-11-11T01:56:58;101807.77;;;9.82;69.53
74403;BME280;62837;51.082;13.744;2022-11-11T01:59:52;101799.46;;;9.78;69.56
74403;BME280;62837;51.082;13.744;2022-11-11T02:02:49;101802.63;;;9.70;69.88
74403;BME280;62837;51.082;13.744;2022-11-11T02:05:40;101801.67;;;9.66;68.89
74403;BME280;62837;51.082;13.744;2022-11-11T02:08:35;101793.99;;;9.53;69.67
74403;BME280;62837;51.082;13.744;2022-11-11T02:11:26;101793.13;;;9.51;70.57
74403;BME280;62837;51.082;13.744;2022-11-11T02:14:38;101791.95;;;9.48;70.40
74403;BME280;62837;51.082;13.744;2022-11-11T02:17:31;101784.23;;;9.37;70.68
74403;BME280;62837;51.082;13.744;2022-11-11T02:20:24;101793.24;;;9.41;70.82
74403;BME280;62837;51.082;13.744;2022-11-11T02:23:17;101796.65;;;9.35;69.94
74403;BME280;62837;51.082;13.744;2022-11-11T02:26:11;101783.91;;;9.30;70.15
74403;BME280;62837;51.082;13.744;2022-11-11T02:29:06;101778.09;;;9.29;70.42
74403;BME280;62837;51.082;13.744;2022-11-11T02:31:58;101774.27;;;9.33;70.70
74403;BME280;62837;51.082;13.744;2022-11-11T02:34:48;101778.23;;;9.36;69.81
74403;BME280;62837;51.082;13.744;2022-11-11T02:37:37;101785.18;;;9.29;69.91
74403;BME280;62837;51.082;13.744;2022-11-11T02:40:29;101788.80;;;9.25;70.44
74403;BME280;62837;51.082;13.744;2022-11-11T02:43:21;101784.58;;;9.32;70.78
74403;BME280;62837;51.082;13.744;2022-11-11T02:46:11;101786.29;;;9.39;70.51
74403;BME280;62837;51.082;13.744;2022-11-11T02:49:00;101787.40;;;9.42;70.07
74403;BME280;62837;51.082;13.744;2022-11-11T02:51:50;101788.95;;;9.39;69.48
74403;BME280;62837;51.082;13.744;2022-11-11T02:54:40;101783.38;;;9.40;70.02
74403;BME280;62837;51.082;13.744;2022-11-11T02:57:31;101788.30;;;9.45;70.28
74403;BME280;62837;51.082;13.744;2022-11-11T03:00:21;101793.88;;;9.54;70.47
74403;BME280;62837;51.082;13.744;2022-11-11T03:03:11;101796.96;;;9.52;69.80
74403;BME280;62837;51.082;13.744;2022-11-11T03:06:01;101795.71;;;9.51;70.16
74403;BME280;62837;51.082;13.744;2022-11-11T03:08:51;101794.29;;;9.56;70.22
74403;BME280;62837;51.082;13.744;2022-11-11T03:11:41;101793.81;;;9.59;70.03
74403;BME280;62837;51.082;13.744;2022-11-11T03:14:31;101798.73;;;9.56;69.58
74403;BME280;62837;51.082;13.744;2022-11-11T03:17:20;101799.36;;;9.43;69.34
74403;BME280;62837;51.082;13.744;2022-11-11T03:20:28;101813.00;;;9.32;69.76
74403;BME280;62837;51.082;13.744;2022-11-11T03:23:31;101817.38;;;9.12;69.78
74403;BME280;62837;51.082;13.744;2022-11-11T03:26:21;101825.54;;;9.06;70.81
74403;BME280;62837;51.082;13.744;2022-11-11T03:29:10;101825.52;;;9.14;71.32
74403;BME280;62837;51.082;13.744;2022-11-11T03:32:00;101833.98;;;9.24;70.87
74403;BME280;62837;51.082;13.744;2022-11-11T03:34:49;101830.74;;;9.29;70.44
74403;BME280;62837;51.082;13.744;2022-11-11T03:37:39;101826.28;;;9.27;69.65
74403;BME280;62837;51.082;13.744;2022-11-11T03:40:47;101825.45;;;9.25;70.69
74403;BME280;62837;51.082;13.744;2022-11-11T03:43:36;101825.64;;;9.30;70.38
74403;BME280;62837;51.082;13.744;2022-11-11T03:46:26;101823.84;;;9.23;69.68
74403;BME280;62837;51.082;13.744;2022-11-11T03:49:15;101826.98;;;9.21;70.07
74403;BME280;62837;51.082;13.744;2022-11-11T03:52:05;101824.88;;;9.09;69.45
74403;BME280;62837;51.082;13.744;2022-11-11T03:54:55;101826.69;;;8.99;70.03
74403;BME280;62837;51.082;13.744;2022-11-11T03:57:45;101825.54;;;9.02;70.23
74403;BME280;62837;51.082;13.744;2022-11-11T04:00:35;101824.80;;;9.08;70.24
74403;BME280;62837;51.082;13.744;2022-11-11T04:03:26;101825.64;;;9.09;69.27
74403;BME280;62837;51.082;13.744;2022-11-11T04:06:33;101823.20;;;9.05;70.48
74403;BME280;62837;51.082;13.744;2022-11-11T04:09:39;101830.40;;;9.12;69.77
74403;BME280;62837;51.082;13.744;2022-11-11T04:12:47;101835.29;;;9.05;70.00
74403;BME280;62837;51.082;13.744;2022-11-11T04:16:12;101834.88;;;8.99;69.92
74403;BME280;62837;51.082;13.744;2022-11-11T04:19:02;101827.73;;;8.94;69.70
74403;BME280;62837;51.082;13.744;2022-11-11T04:22:09;101831.59;;;8.91;69.92
74403;BME280;62837;51.082;13.744;2022-11-11T04:24:59;101825.72;;;8.91;70.03
74403;BME280;62837;51.082;13.744;2022-11-11T04:28:06;101829.09;;;8.91;69.28
74403;BME280;62837;51.082;13.744;2022-11-11T04:31:13;101828.65;;;8.80;69.86
74403;BME280;62837;51.082;13.744;2022-11-11T04:34:02;101821.39;;;8.79;70.11
74403;BME280;62837;51.082;13.744;2022-11-11T04:36:51;101818.89;;;8.84;69.78
74403;BME280;62837;51.082;13.744;2022-11-11T04:39:41;101819.19;;;8.80;69.52
74403;BME280;62837;51.082;13.744;2022-11-11T04:42:48;101813.71;;;8.80;69.96
74403;BME280;62837;51.082;13.744;2022-11-11T04:45:37;101816.27;;;8.82;69.73
74403;BME280;62837;51.082;13.744;2022-11-11T04:48:27;101811.42;;;8.81;69.97
74403;BME280;62837;51.082;13.744;2022-11-11T04:51:17;101806.28;;;8.84;70.04
74403;BME280;62837;51.082;13.744;2022-11-11T04:54:06;101802.59;;;8.87;69.72
74403;BME280;62837;51.082;13.744;2022-11-11T04:56:56;101802.34;;;8.89;70.05
74403;BME280;62837;51.082;13.744;2022-11-11T04:59:45;101795.23;;;8.95;70.23
74403;BME280;62837;51.082;13.744;2022-11-11T05:02:35;101791.76;;;9.01;70.30
74403;BME280;62837;51.082;13.744;2022-11-11T05:05:43;101787.66;;;9.07;70.23
74403;BME280;62837;51.082;13.744;2022-11-11T05:08:50;101791.50;;;9.07;69.78
74403;BME280;62837;51.082;13.744;2022-11-11T05:11:46;101801.52;;;9.03;69.83
74403;BME280;62837;51.082;13.744;2022-11-11T05:14:36;101798.69;;;9.02;70.31
74403;BME280;62837;51.082;13.744;2022-11-11T05:17:43;101799.08;;;9.05;70.20
74403;BME280;62837;51.082;13.744;2022-11-11T05:20:51;101799.52;;;9.10;70.54
74403;BME280;62837;51.082;13.744;2022-11-11T05:23:58;101794.35;;;9.16;70.25
74403;BME280;62837;51.082;13.744;2022-11-11T05:27:05;101786.02;;;9.18;70.43
74403;BME280;62837;51.082;13.744;2022-11-11T05:29:55;101796.19;;;9.26;70.06
74403;BME280;62837;51.082;13.744;2022-11-11T05:32:45;101803.02;;;9.27;69.95
74403;BME280;62837;51.082;13.744;2022-11-11T05:35:35;101804.52;;;9.29;70.27
74403;BME280;62837;51.082;13.744;2022-11-11T05:38:24;101805.35;;;9.33;69.99
74403;BME280;62837;51.082;13.744;2022-11-11T05:41:13;101810.13;;;9.35;69.68
74403;BME280;62837;51.082;13.744;2022-11-11T05:44:03;101809.58;;;9.35;69.86
74403;BME280;62837;51.082;13.744;2022-11-11T05:46:52;101810.73;;;9.33;68.62
74403;BME280;62837;51.082;13.744;2022-11-11T05:49:42;101816.25;;;9.17;68.45
74403;BME280;62837;51.082;13.744;2022-11-11T05:52:31;101817.98;;;8.97;68.77
74403;BME280;62837;51.082;13.744;2022-11-11T05:55:21;101820.72;;;8.78;68.84
74403;BME280;62837;51.082;13.744;2022-11-11T05:58:10;101821.70;;;8.60;69.36
74403;BME280;62837;51.082;13.744;2022-11-11T06:01:00;101826.03;;;8.47;69.58
74403;BME280;62837;51.082;13.744;2022-11-11T06:03:49;101825.27;;;8.36;69.71
74403;BME280;62837;51.082;13.744;2022-11-11T06:06:39;101822.27;;;8.27;70.42
74403;BME280;62837;51.082;13.744;2022-11-11T06:09:28;101821.39;;;8.22;70.30
74403;BME280;62837;51.082;13.744;2022-11-11T06:12:18;101814.51;;;8.17;70.45
74403;BME280;62837;51.082;13.744;2022-11-11T06:15:09;101812.39;;;8.09;70.52
74403;BME280;62837;51.082;13.744;2022-11-11T06:17:58;101810.19;;;8.04;70.86
74403;BME280;62837;51.082;13.744;2022-11-11T06:20:53;101808.40;;;7.99;71.29
74403;BME280;62837;51.082;13.744;2022-11-11T06:23:43;101810.83;;;7.93;71.22
74403;BME280;62837;51.082;13.744;2022-11-11T06:26:32;101830.45;;;7.88;71.32
74403;BME280;62837;51.082;13.744;2022-11-11T06:29:22;101825.35;;;7.75;71.63
74403;BME280;62837;51.082;13.744;2022-11-11T06:32:12;101842.52;;;7.79;71.72
74403;BME280;62837;51.082;13.744;2022-11-11T06:35:01;101844.70;;;7.77;71.86
74403;BME280;62837;51.082;13.744;2022-11-11T06:37:51;101843.23;;;7.76;72.00
74403;BME280;62837;51.082;13.744;2022-11-11T06:40:42;101842.16;;;7.75;71.99
74403;BME280;62837;51.082;13.744;2022-11-11T06:43:32;101832.39;;;7.75;72.00
74403;BME280;62837;51.082;13.744;2022-11-11T06:46:23;101833.49;;;7.75;71.99
74403;BME280;62837;51.082;13.744;2022-11-11T06:49:13;101835.87;;;7.77;72.04
74403;BME280;62837;51.082;13.744;2022-11-11T06:52:03;101850.22;;;7.78;72.14
74403;BME280;62837;51.082;13.744;2022-11-11T06:54:52;101853.44;;;7.81;72.25
74403;BME280;62837;51.082;13.744;2022-11-11T06:57:42;101850.32;;;7.82;72.28
74403;BME280;62837;51.082;13.744;2022-11-11T07:00:31;101842.92;;;7.86;72.12
74403;BME280;62837;51.082;13.744;2022-11-11T07:03:21;101837.40;;;7.88;71.98
74403;BME280;62837;51.082;13.744;2022-11-11T07:06:13;101839.95;;;7.91;72.36
74403;BME280;62837;51.082;13.744;2022-11-11T07:09:02;101844.17;;;7.96;72.00
74403;BME280;62837;51.082;13.744;2022-11-11T07:11:51;101835.72;;;8.02;72.07
74403;BME280;62837;51.082;13.744;2022-11-11T07:14:41;101838.85;;;8.07;72.13
74403;BME280;62837;51.082;13.744;2022-11-11T07:17:30;101845.23;;;8.14;71.93
74403;BME280;62837;51.082;13.744;2022-11-11T07:20:20;101846.29;;;8.20;71.72
74403;BME280;62837;51.082;13.744;2022-11-11T07:23:09;101850.36;;;8.26;71.70
74403;BME280;62837;51.082;13.744;2022-11-11T07:25:59;101856.00;;;8.35;71.78
74403;BME280;62837;51.082;13.744;2022-11-11T07:28:49;101860.49;;;8.58;71.48
74403;BME280;62837;51.082;13.744;2022-11-11T07:31:38;101864.22;;;8.80;71.15
74403;BME280;62837;51.082;13.744;2022-11-11T07:34:28;101862.89;;;9.00;70.96
74403;BME280;62837;51.082;13.744;2022-11-11T07:37:17;101865.98;;;9.23;70.41
74403;BME280;62837;51.082;13.744;2022-11-11T07:40:09;101875.27;;;9.30;70.10
74403;BME280;62837;51.082;13.744;2022-11-11T07:42:59;101877.91;;;9.29;70.03
74403;BME280;62837;51.082;13.744;2022-11-11T07:45:49;101879.63;;;9.33;69.87
74403;BME280;62837;51.082;13.744;2022-11-11T07:48:39;101885.33;;;9.37;69.68
74403;BME280;62837;51.082;13.744;2022-11-11T07:51:28;101893.18;;;9.42;69.82
74403;BME280;62837;51.082;13.744;2022-11-11T07:54:18;101896.14;;;9.53;69.78
74403;BME280;62837;51.082;13.744;2022-11-11T07:57:07;101902.33;;;9.65;69.79
74403;BME280;62837;51.082;13.744;2022-11-11T07:59:56;101904.23;;;9.73;69.67
74403;BME280;62837;51.082;13.744;2022-11-11T08:02:48;101906.41;;;9.81;69.34
74403;BME280;62837;51.082;13.744;2022-11-11T08:05:42;101908.66;;;9.89;69.20
74403;BME280;62837;51.082;13.744;2022-11-11T08:08:32;101918.04;;;10.00;69.04
74403;BME280;62837;51.082;13.744;2022-11-11T08:11:21;101924.08;;;10.13;68.81
74403;BME280;62837;51.082;13.744;2022-11-11T08:14:25;101924.34;;;10.25;68.58
74403;BME280;62837;51.082;13.744;2022-11-11T08:17:14;101925.41;;;10.31;68.49
74403;BME280;62837;51.082;13.744;2022-11-11T08:20:04;101930.59;;;10.30;68.21
74403;BME280;62837;51.082;13.744;2022-11-11T08:22:54;101934.83;;;10.26;68.10
74403;BME280;62837;51.082;13.744;2022-11-11T08:26:06;101935.11;;;10.16;68.24
74403;BME280;62837;51.082;13.744;2022-11-11T08:28:56;101931.32;;;10.09;68.20
74403;BME280;62837;51.082;13.744;2022-11-11T08:31:47;101928.70;;;10.06;68.07
74403;BME280;62837;51.082;13.744;2022-11-11T08:34:36;101933.27;;;10.00;68.29
74403;BME280;62837;51.082;13.744;2022-11-11T08:37:26;101935.02;;;9.95;68.42
74403;BME280;62837;51.082;13.744;2022-11-11T08:40:16;101937.64;;;9.93;68.63
74403;BME280;62837;51.082;13.744;2022-11-11T08:43:05;101938.95;;;9.93;68.74
74403;BME280;62837;51.082;13.744;2022-11-11T08:45:55;101933.29;;;9.94;68.74
74403;BME280;62837;51.082;13.744;2022-11-11T08:48:44;101939.54;;;9.97;68.73
74403;BME280;62837;51.082;13.744;2022-11-11T08:51:34;101928.69;;;10.03;68.89
74403;BME280;62837;51.082;13.744;2022-11-11T08:54:31;101935.87;;;10.14;68.94
74403;BME280;62837;51.082;13.744;2022-11-11T08:57:21;101936.41;;;10.22;69.05
74403;BME280;62837;51.082;13.744;2022-11-11T09:00:13;101939.49;;;10.30;68.93
74403;BME280;62837;51.082;13.744;2022-11-11T09:03:05;101928.67;;;10.36;68.59
74403;BME280;62837;51.082;13.744;2022-11-11T09:05:55;101937.02;;;10.50;68.38
74403;BME280;62837;51.082;13.744;2022-11-11T09:08:45;101932.42;;;10.61;68.27
74403;BME280;62837;51.082;13.744;2022-11-11T09:11:34;101935.86;;;10.76;68.10
74403;BME280;62837;51.082;13.744;2022-11-11T09:14:24;101939.36;;;10.91;67.78
74403;BME280;62837;51.082;13.744;2022-11-11T09:17:14;101942.86;;;11.07;67.67
74403;BME280;62837;51.082;13.744;2022-11-11T09:20:06;101945.77;;;11.20;67.09
74403;BME280;62837;51.082;13.744;2022-11-11T09:22:55;101954.94;;;11.31;66.79
74403;BME280;62837;51.082;13.744;2022-11-11T09:25:44;101955.70;;;11.44;66.75
74403;BME280;62837;51.082;13.744;2022-11-11T09:28:34;101955.57;;;11.61;66.14
74403;BME280;62837;51.082;13.744;2022-11-11T09:31:26;101948.90;;;11.82;65.82
74403;BME280;62837;51.082;13.744;2022-11-11T09:34:33;101949.16;;;11.99;65.44
74403;BME280;62837;51.082;13.744;2022-11-11T09:37:22;101945.64;;;12.05;65.05
74403;BME280;62837;51.082;13.744;2022-11-11T09:40:17;101943.61;;;12.02;65.10
74403;BME280;62837;51.082;13.744;2022-11-11T09:43:16;101945.91;;;11.97;65.26
74403;BME280;62837;51.082;13.744;2022-11-11T09:46:34;101943.71;;;11.90;65.23
74403;BME280;62837;51.082;13.744;2022-11-11T09:49:36;101936.69;;;11.82;65.27
74403;BME280;62837;51.082;13.744;2022-11-11T09:52:30;101942.92;;;11.77;65.21
74403;BME280;62837;51.082;13.744;2022-11-11T09:55:22;101940.94;;;11.72;65.26
74403;BME280;62837;51.082;13.744;2022-11-11T09:58:18;101938.54;;;11.66;65.35
74403;BME280;62837;51.082;13.744;2022-11-11T10:01:11;101944.04;;;11.61;65.50
74403;BME280;62837;51.082;13.744;2022-11-11T10:04:07;101950.24;;;11.56;65.59
74403;BME280;62837;51.082;13.744;2022-11-11T10:07:05;101949.91;;;11.51;65.76
74403;BME280;62837;51.082;13.744;2022-11-11T10:09:59;101949.95;;;11.48;65.91
74403;BME280;62837;51.082;13.744;2022-11-11T10:12:55;101943.72;;;11.47;65.89
74403;BME280;62837;51.082;13.744;2022-11-11T10:15:51;101943.20;;;11.45;65.99
74403;BME280;62837;51.082;13.744;2022-11-11T10:18:55;101940.61;;;11.49;66.10
74403;BME280;62837;51.082;13.744;2022-11-11T10:21:52;101936.75;;;11.67;65.96
74403;BME280;62837;51.082;13.744;2022-11-11T10:25:18;101938.70;;;11.94;65.46
74403;BME280;62837;51.082;13.744;2022-11-11T10:28:14;101937.34;;;12.19;65.20
74403;BME280;62837;51.082;13.744;2022-11-11T10:31:09;101939.48;;;12.42;64.76
74403;BME280;62837;51.082;13.744;2022-11-11T10:34:04;101938.64;;;12.62;64.65
74403;BME280;62837;51.082;13.744;2022-11-11T10:36:55;101946.70;;;12.66;64.56
74403;BME280;62837;51.082;13.744;2022-11-11T10:39:53;101943.20;;;12.66;64.35
74403;BME280;62837;51.082;13.744;2022-11-11T10:42:44;101943.36;;;12.63;64.11
74403;BME280;62837;51.082;13.744;2022-11-11T10:45:40;101944.36;;;12.57;64.23
74403;BME280;62837;51.082;13.744;2022-11-11T10:48:40;101941.88;;;12.55;64.32
74403;BME280;62837;51.082;13.744;2022-11-11T10:51:37;101943.33;;;12.52;64.26
74403;BME280;62837;51.082;13.744;2022-11-11T10:54:34;101943.52;;;12.50;64.44
74403;BME280;62837;51.082;13.744;2022-11-11T10:57:35;101946.33;;;12.50;64.40
74403;BME280;62837;51.082;13.744;2022-11-11T11:00:27;101952.35;;;12.50;64.48
74403;BME280;62837;51.082;13.744;2022-11-11T11:03:22;101952.70;;;12.56;64.41
74403;BME280;62837;51.082;13.744;2022-11-11T11:06:15;101948.73;;;12.66;64.13
74403;BME280;62837;51.082;13.744;2022-11-11T11:09:12;101947.93;;;12.77;63.84
74403;BME280;62837;51.082;13.744;2022-11-11T11:12:08;101945.40;;;12.89;63.40
74403;BME280;62837;51.082;13.744;2022-11-11T11:15:07;101948.95;;;13.01;62.82
74403;BME280;62837;51.082;13.744;2022-11-11T11:18:02;101943.19;;;13.00;62.52
74403;BME280;62837;51.082;13.744;2022-11-11T11:21:01;101946.80;;;13.03;62.71
74403;BME280;62837;51.082;13.744;2022-11-11T11:23:50;101939.55;;;13.04;62.47
74403;BME280;62837;51.082;13.744;2022-11-11T11:26:45;101940.77;;;13.07;62.30
74403;BME280;62837;51.082;13.744;2022-11-11T11:29:37;101938.73;;;13.10;62.15
74403;BME280;62837;51.082;13.744;2022-11-11T11:32:30;101939.40;;;13.13;62.27
74403;BME280;62837;51.082;13.744;2022-11-11T11:35:32;101935.14;;;13.15;62.09
74403;BME280;62837;51.082;13.744;2022-11-11T11:38:40;101937.38;;;13.18;62.00
74403;BME280;62837;51.082;13.744;2022-11-11T11:41:42;101938.85;;;13.22;62.25
74403;BME280;62837;51.082;13.744;2022-11-11T11:44:32;101936.52;;;13.19;62.53
74403;BME280;62837;51.082;13.744;2022-11-11T11:47:31;101930.16;;;13.14;62.57
74403;BME280;62837;51.082;13.744;2022-11-11T11:50:39;101924.96;;;13.12;62.57
74403;BME280;62837;51.082;13.744;2022-11-11T11:53:37;101925.60;;;13.11;62.63
74403;BME280;62837;51.082;13.744;2022-11-11T11:56:35;101926.70;;;13.10;62.78
74403;BME280;62837;51.082;13.744;2022-11-11T11:59:30;101927.55;;;13.12;63.06
74403;BME280;62837;51.082;13.744;2022-11-11T12:02:39;101923.52;;;13.16;63.14
74403;BME280;62837;51.082;13.744;2022-11-11T12:05:39;101914.84;;;13.20;63.01
74403;BME280;62837;51.082;13.744;2022-11-11T12:08:41;101910.17;;;13.22;62.89
74403;BME280;62837;51.082;13.744;2022-11-11T12:11:43;101917.50;;;13.23;62.76
74403;BME280;62837;51.082;13.744;2022-11-11T12:14:47;101916.91;;;13.23;62.79
74403;BME280;62837;51.082;13.744;2022-11-11T12:17:53;101911.02;;;13.27;62.83
74403;BME280;62837;51.082;13.744;2022-11-11T12:20:50;101905.66;;;13.29;62.59
74403;BME280;62837;51.082;13.744;2022-11-11T12:23:53;101898.16;;;13.32;62.51
74403;BME280;62837;51.082;13.744;2022-11-11T12:26:51;101900.39;;;13.34;62.39
74403;BME280;62837;51.082;13.744;2022-11-11T12:29:51;101889.42;;;13.34;62.30
74403;BME280;62837;51.082;13.744;2022-11-11T12:33:03;101879.13;;;13.31;62.38
74403;BME280;62837;51.082;13.744;2022-11-11T12:36:04;101885.81;;;13.31;62.50
74403;BME280;62837;51.082;13.744;2022-11-11T12:39:04;101882.30;;;13.29;62.44
74403;BME280;62837;51.082;13.744;2022-11-11T12:42:04;101889.79;;;13.28;62.59
74403;BME280;62837;51.082;13.744;2022-11-11T12:45:04;101886.65;;;13.28;62.79
74403;BME280;62837;51.082;13.744;2022-11-11T12:48:02;101880.58;;;13.27;62.87
74403;BME280;62837;51.082;13.744;2022-11-11T12:50:57;101886.17;;;13.25;62.78
74403;BME280;62837;51.082;13.744;2022-11-11T12:53:58;101888.15;;;13.22;62.68
74403;BME280;62837;51.082;13.744;2022-11-11T12:56:57;101888.48;;;13.20;62.57
74403;BME280;62837;51.082;13.744;2022-11-11T13:00:03;101883.39;;;13.19;62.71
74403;BME280;62837;51.082;13.744;2022-11-11T13:03:16;101883.95;;;13.17;62.80
74403;BME280;62837;51.082;13.744;2022-11-11T13:06:30;101885.13;;;13.16;62.82
74403;BME280;62837;51.082;13.744;2022-11-11T13:09:44;101881.44;;;13.13;62.90
74403;BME280;62837;51.082;13.744;2022-11-11T13:12:45;101878.45;;;13.10;62.97
74403;BME280;62837;51.082;13.744;2022-11-11T13:15:37;101878.42;;;13.05;63.20
74403;BME280;62837;51.082;13.744;2022-11-11T13:18:29;101879.75;;;13.03;63.35
74403;BME280;62837;51.082;13.744;2022-11-11T13:21:29;101880.50;;;13.00;63.46
74403;BME280;62837;51.082;13.744;2022-11-11T13:24:21;101886.22;;;12.97;63.62
74403;BME280;62837;51.082;13.744;2022-11-11T13:27:18;101888.52;;;12.93;63.65
74403;BME280;62837;51.082;13.744;2022-11-11T13:30:40;101887.09;;;12.89;63.79
74403;BME280;62837;51.082;13.744;2022-11-11T13:33:39;101893.84;;;12.86;64.01
74403;BME280;62837;51.082;13.744;2022-11-11T13:36:38;101892.03;;;12.83;64.14
74403;BME280;62837;51.082;13.744;2022-11-11T13:39:30;101893.71;;;12.81;64.23
74403;BME280;62837;51.082;13.744;2022-11-11T13:42:24;101895.89;;;12.79;64.37
74403;BME280;62837;51.082;13.744;2022-11-11T13:45:25;101900.19;;;12.77;64.51
74403;BME280;62837;51.082;13.744;2022-11-11T13:48:24;101911.25;;;12.76;64.73
74403;BME280;62837;51.082;13.744;2022-11-11T13:51:23;101919.40;;;12.74;64.81
74403;BME280;62837;51.082;13.744;2022-11-11T13:54:25;101917.45;;;12.74;64.96
74403;BME280;62837;51.082;13.744;2022-11-11T13:57:22;101916.48;;;12.73;65.05
74403;BME280;62837;51.082;13.744;2022-11-11T14:00:27;101910.90;;;12.71;65.06
74403;BME280;62837;51.082;13.744;2022-11-11T14:03:32;101903.76;;;12.70;65.33
74403;BME280;62837;51.082;13.744;2022-11-11T14:06:47;101895.33;;;12.68;65.72
74403;BME280;62837;51.082;13.744;2022-11-11T14:09:59;101902.20;;;12.66;66.15
74403;BME280;62837;51.082;13.744;2022-11-11T14:12:50;101908.77;;;12.64;66.24
74403;BME280;62837;51.082;13.744;2022-11-11T14:15:43;101911.29;;;12.60;66.09
74403;BME280;62837;51.082;13.744;2022-11-11T14:18:43;101918.12;;;12.58;66.15
74403;BME280;62837;51.082;13.744;2022-11-11T14:21:52;101916.69;;;12.56;66.22
74403;BME280;62837;51.082;13.744;2022-11-11T14:24:47;101911.91;;;12.53;66.04
74403;BME280;62837;51.082;13.744;2022-11-11T14:27:36;101908.48;;;12.48;66.05
74403;BME280;62837;51.082;13.744;2022-11-11T14:30:37;101908.26;;;12.46;66.19
74403;BME280;62837;51.082;13.744;2022-11-11T14:33:38;101904.48;;;12.41;66.12
74403;BME280;62837;51.082;13.744;2022-11-11T14:36:39;101909.98;;;12.36;66.33
74403;BME280;62837;51.082;13.744;2022-11-11T14:39:36;101906.20;;;12.33;66.46
74403;BME280;62837;51.082;13.744;2022-11-11T14:42:47;101904.66;;;12.29;66.30
74403;BME280;62837;51.082;13.744;2022-11-11T14:46:03;101907.03;;;12.24;66.28
74403;BME280;62837;51.082;13.744;2022-11-11T14:48:58;101908.16;;;12.19;66.49
74403;BME280;62837;51.082;13.744;2022-11-11T14:51:58;101906.77;;;12.15;66.53
74403;BME280;62837;51.082;13.744;2022-11-11T14:54:53;101912.50;;;12.11;66.57
74403;BME280;62837;51.082;13.744;2022-11-11T14:57:47;101911.55;;;12.04;66.81
74403;BME280;62837;51.082;13.744;2022-11-11T15:00:47;101922.92;;;12.01;66.93
74403;BME280;62837;51.082;13.744;2022-11-11T15:03:41;101925.73;;;11.97;67.11
74403;BME280;62837;51.082;13.744;2022-11-11T15:06:40;101922.16;;;11.92;67.11
74403;BME280;62837;51.082;13.744;2022-11-11T15:10:01;101916.10;;;11.85;67.38
74403;BME280;62837;51.082;13.744;2022-11-11T15:13:09;101922.58;;;11.78;67.52